Time,TemperatureF,DewpointF,PressureIn,WindDirection,WindDirectionDegrees,WindSpeedMPH,WindSpeedGustMPH,Humidity,HourlyPrecipIn,Conditions,Clouds,dailyrainin,SoftwareType,DateUTC
2013-01-20 00:00:00,45.2,35.0,30.22,SSE,154,0.0,0.0,68,0.00,,,0.00,weatherlink.com 1.10,2013-01-20 08:00:00,
2013-01-20 00:15:00,45.3,34.0,30.22,SSE,154,0.0,0.0,66,0.00,,,0.00,weatherlink.com 1.10,2013-01-20 08:15:00,
2013-01-20 00:31:00,44.9,34.0,30.22,SSE,154,0.0,0.0,66,0.00,,,0.00,weatherlink.com 1.10,2013-01-20 08:31:00,
2013-01-20 00:46:00,44.7,34.0,30.22,SSE,154,0.0,0.0,66,0.00,,,0.00,weatherlink.com 1.10,2013-01-20 08:46:00,
2013-01-20 01:01:00,44.7,33.0,30.22,SSE,154,0.0,0.0,65,0.00,,,0.00,weatherlink.com 1.10,2013-01-20 09:01:00,
2013-01-20 01:16:00,44.5,33.0,30.22,SSE,154,0.0,0.0,65,0.00,,,0.00,weatherlink.com 1.10,2013-01-20 09:16:00,
2013-01-20 01:31:00,44.9,33.0,30.22,SSE,154,0.0,0.0,63,0.00,,,0.00,weatherlink.com 1.10,2013-01-20 09:31:00,
2013-01-20 01:46:00,45.5,33.0,30.22,SSE,154,0.0,0.0,61,0.00,,,0.00,weatherlink.com 1.10,2013-01-20 09:46:00,
2013-01-20 02:01:00,45.2,32.0,30.22,SSE,154,0.0,0.0,60,0.00,,,0.00,weatherlink.com 1.10,2013-01-20 10:01:00,
2013-01-20 02:16:00,45.2,31.0,30.22,SSE,154,0.0,0.0,59,0.00,,,0.00,weatherlink.com 1.10,2013-01-20 10:16:00,
2013-01-20 02:31:00,45.0,31.0,30.22,SSE,154,0.0,0.0,59,0.00,,,0.00,weatherlink.com 1.10,2013-01-20 10:31:00,
2013-01-20 02:46:00,44.6,32.0,30.22,SSE,154,0.0,0.0,61,0.00,,,0.00,weatherlink.com 1.10,2013-01-20 10:46:00,
2013-01-20 03:01:00,44.1,32.0,30.22,SSE,154,0.0,0.0,62,0.00,,,0.00,weatherlink.com 1.10,2013-01-20 11:01:00,
2013-01-20 03:16:00,44.3,32.0,30.22,SSE,154,0.0,0.0,62,0.00,,,0.00,weatherlink.com 1.10,2013-01-20 11:16:00,
2013-01-20 03:31:00,43.6,32.0,30.22,SSE,154,0.0,0.0,64,0.00,,,0.00,weatherlink.com 1.10,2013-01-20 11:31:00,
2013-01-20 03:46:00,43.3,32.0,30.22,SSE,154,0.0,0.0,64,0.00,,,0.00,weatherlink.com 1.10,2013-01-20 11:46:00,
2013-01-20 04:01:00,43.5,32.0,30.22,SSE,154,0.0,0.0,64,0.00,,,0.00,weatherlink.com 1.10,2013-01-20 12:01:00,
2013-01-20 04:16:00,43.5,32.0,30.21,SSE,154,0.0,0.0,64,0.00,,,0.00,weatherlink.com 1.10,2013-01-20 12:16:00,
2013-01-20 04:31:00,43.3,33.0,30.21,SSE,154,0.0,0.0,66,0.00,,,0.00,weatherlink.com 1.10,2013-01-20 12:31:00,
2013-01-20 04:46:00,43.4,33.0,30.21,SSE,154,0.0,0.0,67,0.00,,,0.00,weatherlink.com 1.10,2013-01-20 12:46:00,
2013-01-20 05:01:00,43.1,33.0,30.21,SSE,154,0.0,0.0,67,0.00,,,0.00,weatherlink.com 1.10,2013-01-20 13:01:00,
2013-01-20 05:16:00,43.8,32.0,30.21,SSE,154,0.0,0.0,63,0.00,,,0.00,weatherlink.com 1.10,2013-01-20 13:16:00,
2013-01-20 05:31:00,45.0,31.0,30.21,SSE,154,0.0,0.0,58,0.00,,,0.00,weatherlink.com 1.10,2013-01-20 13:31:00,
2013-01-20 05:46:00,45.7,31.0,30.21,SSE,154,0.0,0.0,58,0.00,,,0.00,weatherlink.com 1.10,2013-01-20 13:46:00,
2013-01-20 06:01:00,46.0,33.0,30.20,SSE,167,0.0,0.0,60,0.00,,,0.00,weatherlink.com 1.10,2013-01-20 14:01:00,
2013-01-20 06:16:00,46.4,33.0,30.20,SE,146,0.0,1.0,60,0.00,,,0.00,weatherlink.com 1.10,2013-01-20 14:16:00,
2013-01-20 06:31:00,46.0,32.0,30.21,SE,146,0.0,0.0,58,0.00,,,0.00,weatherlink.com 1.10,2013-01-20 14:31:00,
2013-01-20 06:46:00,45.7,31.0,30.21,SE,146,0.0,1.0,56,0.00,,,0.00,weatherlink.com 1.10,2013-01-20 14:46:00,
2013-01-20 07:01:00,45.1,30.0,30.21,SE,146,0.0,0.0,57,0.00,,,0.00,weatherlink.com 1.10,2013-01-20 15:01:00,
2013-01-20 07:16:00,45.7,30.0,30.21,South,172,0.0,0.0,54,0.00,,,0.00,weatherlink.com 1.10,2013-01-20 15:16:00,
2013-01-20 07:31:00,45.2,30.0,30.21,South,172,0.0,0.0,55,0.00,,,0.00,weatherlink.com 1.10,2013-01-20 15:31:00,
2013-01-20 07:46:00,44.7,30.0,30.21,South,172,0.0,0.0,57,0.00,,,0.00,weatherlink.com 1.10,2013-01-20 15:46:00,
2013-01-20 08:01:00,44.8,30.0,30.21,South,172,0.0,0.0,57,0.00,,,0.00,weatherlink.com 1.10,2013-01-20 16:01:00,
2013-01-20 08:16:00,46.1,31.0,30.22,SE,130,0.0,1.0,56,0.00,,,0.00,weatherlink.com 1.10,2013-01-20 16:16:00,
2013-01-20 08:31:00,47.8,32.0,30.22,SSE,148,0.0,2.0,55,0.00,,,0.00,weatherlink.com 1.10,2013-01-20 16:31:00,
2013-01-20 08:46:00,50.3,33.0,30.22,SE,143,0.0,2.0,51,0.00,,,0.00,weatherlink.com 1.10,2013-01-20 16:46:00,
2013-01-20 09:01:00,52.4,34.0,30.23,SSE,158,1.0,2.0,49,0.00,,,0.00,weatherlink.com 1.10,2013-01-20 17:01:00,
2013-01-20 09:16:00,53.5,35.0,30.23,ESE,120,0.0,2.0,50,0.00,,,0.00,weatherlink.com 1.10,2013-01-20 17:16:00,
2013-01-20 09:31:00,54.5,34.0,30.24,SE,136,1.0,3.0,46,0.00,,,0.00,weatherlink.com 1.10,2013-01-20 17:31:00,
2013-01-20 09:47:00,55.0,34.0,30.24,SSE,160,2.0,4.0,45,0.00,,,0.00,weatherlink.com 1.10,2013-01-20 17:47:00,
2013-01-20 10:02:00,55.9,35.0,30.24,SE,129,1.0,4.0,46,0.00,,,0.00,weatherlink.com 1.10,2013-01-20 18:02:00,
2013-01-20 10:17:00,57.0,36.0,30.23,SE,125,1.0,4.0,45,0.00,,,0.00,weatherlink.com 1.10,2013-01-20 18:17:00,
2013-01-20 10:32:00,57.2,33.0,30.23,ESE,107,0.0,4.0,40,0.00,,,0.00,weatherlink.com 1.10,2013-01-20 18:32:00,
2013-01-20 10:47:00,57.8,33.0,30.23,ESE,116,0.0,4.0,40,0.00,,,0.00,weatherlink.com 1.10,2013-01-20 18:47:00,
2013-01-20 11:02:00,58.1,34.0,30.23,SW,233,0.0,3.0,41,0.00,,,0.00,weatherlink.com 1.10,2013-01-20 19:02:00,
2013-01-20 11:17:00,58.8,36.0,30.22,SSE,161,0.0,2.0,42,0.00,,,0.00,weatherlink.com 1.10,2013-01-20 19:17:00,
2013-01-20 11:32:00,59.3,33.0,30.21,WSW,251,0.0,3.0,37,0.00,,,0.00,weatherlink.com 1.10,2013-01-20 19:32:00,
2013-01-20 11:47:00,59.4,33.0,30.20,West,277,0.0,4.0,37,0.00,,,0.00,weatherlink.com 1.10,2013-01-20 19:47:00,
2013-01-20 12:02:00,60.3,36.0,30.19,WNW,300,1.0,1.0,40,0.00,,,0.00,weatherlink.com 1.10,2013-01-20 20:02:00,
2013-01-20 12:17:00,60.4,34.0,30.18,SSW,195,0.0,3.0,37,0.00,,,0.00,weatherlink.com 1.10,2013-01-20 20:17:00,
2013-01-20 12:32:00,60.5,35.0,30.18,SSE,168,1.0,3.0,39,0.00,,,0.00,weatherlink.com 1.10,2013-01-20 20:32:00,
2013-01-20 12:47:00,61.1,34.0,30.17,SE,142,0.0,4.0,37,0.00,,,0.00,weatherlink.com 1.10,2013-01-20 20:47:00,
2013-01-20 13:02:00,61.6,34.0,30.17,East,100,1.0,3.0,36,0.00,,,0.00,weatherlink.com 1.10,2013-01-20 21:02:00,
2013-01-20 13:17:00,61.8,35.0,30.16,SE,139,1.0,1.0,37,0.00,,,0.00,weatherlink.com 1.10,2013-01-20 21:17:00,
2013-01-20 13:32:00,62.7,35.0,30.16,SE,131,1.0,3.0,36,0.00,,,0.00,weatherlink.com 1.10,2013-01-20 21:32:00,
2013-01-20 13:47:00,62.6,33.0,30.15,SE,136,1.0,2.0,33,0.00,,,0.00,weatherlink.com 1.10,2013-01-20 21:47:00,
2013-01-20 14:02:00,62.5,34.0,30.14,NW,316,0.0,2.0,34,0.00,,,0.00,weatherlink.com 1.10,2013-01-20 22:02:00,
2013-01-20 14:17:00,62.7,34.0,30.14,SSW,212,0.0,2.0,34,0.00,,,0.00,weatherlink.com 1.10,2013-01-20 22:17:00,
2013-01-20 14:32:00,62.9,34.0,30.14,SE,132,0.0,1.0,34,0.00,,,0.00,weatherlink.com 1.10,2013-01-20 22:32:00,
2013-01-20 14:47:00,62.8,35.0,30.14,SSW,212,0.0,1.0,35,0.00,,,0.00,weatherlink.com 1.10,2013-01-20 22:47:00,
2013-01-20 15:02:00,62.4,34.0,30.14,WSW,248,0.0,1.0,34,0.00,,,0.00,weatherlink.com 1.10,2013-01-20 23:02:00,
2013-01-20 15:17:00,63.0,34.0,30.14,WNW,301,0.0,1.0,34,0.00,,,0.00,weatherlink.com 1.10,2013-01-20 23:17:00,
2013-01-20 15:32:00,62.3,32.0,30.15,North,351,0.0,2.0,32,0.00,,,0.00,weatherlink.com 1.10,2013-01-20 23:32:00,
2013-01-20 15:47:00,62.0,32.0,30.15,NNW,344,0.0,1.0,32,0.00,,,0.00,weatherlink.com 1.10,2013-01-20 23:47:00,
2013-01-20 16:02:00,61.2,32.0,30.15,NNW,344,0.0,1.0,34,0.00,,,0.00,weatherlink.com 1.10,2013-01-21 00:02:00,
2013-01-20 16:17:00,60.3,33.0,30.15,NNW,344,0.0,0.0,36,0.00,,,0.00,weatherlink.com 1.10,2013-01-21 00:17:00,
2013-01-20 16:32:00,59.5,35.0,30.15,NNW,344,0.0,0.0,40,0.00,,,0.00,weatherlink.com 1.10,2013-01-21 00:32:00,
2013-01-20 17:02:00,55.7,37.0,30.15,NNW,344,0.0,0.0,50,0.00,,,0.00,weatherlink.com 1.10,2013-01-21 01:02:00,
2013-01-20 17:17:00,53.2,37.0,30.15,NNE,19,0.0,0.0,54,0.00,,,0.00,weatherlink.com 1.10,2013-01-21 01:17:00,
2013-01-20 17:32:00,52.6,35.0,30.14,SE,145,0.0,0.0,52,0.00,,,0.00,weatherlink.com 1.10,2013-01-21 01:32:00,
2013-01-20 17:47:00,52.3,35.0,30.15,SE,145,0.0,0.0,52,0.00,,,0.00,weatherlink.com 1.10,2013-01-21 01:47:00,
2013-01-20 18:02:00,51.2,34.0,30.15,SE,145,0.0,0.0,53,0.00,,,0.00,weatherlink.com 1.10,2013-01-21 02:02:00,
2013-01-20 18:18:00,50.7,34.0,30.16,SE,145,0.0,0.0,54,0.00,,,0.00,weatherlink.com 1.10,2013-01-21 02:18:00,
2013-01-20 18:33:00,49.7,34.0,30.15,SE,145,0.0,0.0,56,0.00,,,0.00,weatherlink.com 1.10,2013-01-21 02:33:00,
2013-01-20 18:48:00,48.7,34.0,30.16,SE,145,0.0,0.0,58,0.00,,,0.00,weatherlink.com 1.10,2013-01-21 02:48:00,
2013-01-20 19:03:00,48.2,34.0,30.16,SE,145,0.0,0.0,59,0.00,,,0.00,weatherlink.com 1.10,2013-01-21 03:03:00,
2013-01-20 19:18:00,47.9,34.0,30.16,SE,145,0.0,0.0,58,0.00,,,0.00,weatherlink.com 1.10,2013-01-21 03:18:00,
2013-01-20 19:33:00,47.7,33.0,30.16,SE,145,0.0,0.0,57,0.00,,,0.00,weatherlink.com 1.10,2013-01-21 03:33:00,
2013-01-20 19:48:00,47.3,32.0,30.16,SE,145,0.0,0.0,55,0.00,,,0.00,weatherlink.com 1.10,2013-01-21 03:48:00,
2013-01-20 20:03:00,47.5,30.0,30.16,SE,145,0.0,0.0,52,0.00,,,0.00,weatherlink.com 1.10,2013-01-21 04:03:00,
2013-01-20 20:18:00,47.3,30.0,30.17,SE,145,0.0,0.0,51,0.00,,,0.00,weatherlink.com 1.10,2013-01-21 04:18:00,
2013-01-20 20:33:00,47.6,30.0,30.17,SE,145,0.0,0.0,50,0.00,,,0.00,weatherlink.com 1.10,2013-01-21 04:33:00,
2013-01-20 20:48:00,47.8,29.0,30.17,SE,145,0.0,0.0,49,0.00,,,0.00,weatherlink.com 1.10,2013-01-21 04:48:00,
2013-01-20 21:03:00,47.3,29.0,30.18,SE,145,0.0,0.0,50,0.00,,,0.00,weatherlink.com 1.10,2013-01-21 05:03:00,
2013-01-20 21:18:00,47.4,29.0,30.18,SE,145,0.0,0.0,49,0.00,,,0.00,weatherlink.com 1.10,2013-01-21 05:18:00,
2013-01-20 21:33:00,46.9,29.0,30.18,SE,145,0.0,0.0,50,0.00,,,0.00,weatherlink.com 1.10,2013-01-21 05:33:00,
2013-01-20 21:48:00,47.3,29.0,30.18,SE,145,0.0,0.0,49,0.00,,,0.00,weatherlink.com 1.10,2013-01-21 05:48:00,
2013-01-20 22:03:00,46.8,29.0,30.19,SE,145,0.0,0.0,51,0.00,,,0.00,weatherlink.com 1.10,2013-01-21 06:03:00,
2013-01-20 22:18:00,47.2,29.0,30.19,SE,145,0.0,0.0,50,0.00,,,0.00,weatherlink.com 1.10,2013-01-21 06:18:00,
2013-01-20 22:33:00,47.6,30.0,30.19,SSE,155,0.0,0.0,50,0.00,,,0.00,weatherlink.com 1.10,2013-01-21 06:33:00,
2013-01-20 22:48:00,47.5,30.0,30.18,SSE,155,0.0,0.0,50,0.00,,,0.00,weatherlink.com 1.10,2013-01-21 06:48:00,
2013-01-20 23:03:00,47.1,29.0,30.18,SSE,155,0.0,0.0,50,0.00,,,0.00,weatherlink.com 1.10,2013-01-21 07:03:00,
2013-01-20 23:18:00,47.2,30.0,30.18,SSE,155,0.0,0.0,52,0.00,,,0.00,weatherlink.com 1.10,2013-01-21 07:18:00,
2013-01-20 23:33:00,47.1,29.0,30.17,SSE,155,0.0,0.0,50,0.00,,,0.00,weatherlink.com 1.10,2013-01-21 07:33:00,
2013-01-20 23:48:00,47.2,29.0,30.17,SSE,155,0.0,0.0,50,0.00,,,0.00,weatherlink.com 1.10,2013-01-21 07:48:00,